עמוד ראשי
תמונות לווין תחזית 15-יוםאקליםתחזית ים סופות טרופיות ברק שדות תעופהשאלות נפוצות עלון אודות
מזג אוויר : אירופה אפריקה אמריקה הצפונית אמריקה הדרומית אסיה אוסטרליה-אוקיאניה אחר
שפות איש קשר

סלוניקי, יוון

קו רוחב: 40-31N, קו אורך: 022-58E, גובה: 8 m


METAR: LGTS 210350Z 35014KT 9999 FEW030 11/03 Q1019 NOSIG
TAF: LGTS 202300Z 2100/2124 34015KT 9999 FEW030 BECMG 2108/2110 34020G30KT

זמן: 06:06 (04:06 UTC)

תצפית מזג אוויר נוכחית

הדו"ח נערך לפני 16 דקות, בשעה 03:50 UTC
רוח 14 קשר מכיוון צפון
טמפרטורת 11°C
לחות 58%
לחץ 1019 hPa
ראות 10 קילומטר או יותר
מעט עננים בגובה 3000 רגל

שינוי יחידות

תחזית

הדו"ח נערך לפני 5 שעות ו 6 דקות, בשעה 23:00 UTC
תחזית בתוקף מ 21 ב 00 UTC עד 21 ב 24 UTC
רוח 15 קשר מכיוון צפון/צפון-מערב
ראות 10 קילומטר או יותר
מעט עננים בגובה 3000 רגל
יעשה מ
21 ב 08 UTC עד 21 ב 10 UTC
רוח 20 קשר מכיוון צפון/צפון-מערב עם משבים עד 30 קשר
המידע באתר זה מותנה של תניית פטור
מזג אוויר : אירופה אפריקה אמריקה הצפונית אמריקה הדרומית אסיה אוסטרליה-אוקיאניה אחר
תמונות לווין תחזית 15-יוםאקליםתחזית ים סופות טרופיות ברק שדות תעופהשאלות נפוצות שפות איש קשר עלון אודות